createdAt,value
2018-01-12T00:02:10.449Z,45.10
2018-01-12T00:04:38.717Z,47.40
2018-01-12T00:07:06.978Z,43.70
2018-01-12T00:09:34.482Z,43.93
2018-01-12T00:12:02.002Z,44.97
2018-01-12T00:14:29.517Z,45.27
2018-01-12T00:16:57.014Z,46.70
2018-01-12T00:19:24.510Z,42.90
2018-01-12T00:21:52.783Z,43.23
2018-01-12T00:24:21.041Z,45.70
2018-01-12T00:26:49.324Z,46.93
2018-01-12T00:29:17.608Z,45.10
2018-01-12T00:31:45.894Z,45.57
2018-01-12T00:34:13.410Z,45.10
2018-01-12T00:36:40.901Z,44.30
2018-01-12T00:39:09.175Z,46.03
2018-01-12T00:41:37.441Z,44.70
2018-01-12T00:44:04.935Z,45.17
2018-01-12T00:46:32.444Z,45.40
2018-01-12T00:48:59.946Z,45.00
2018-01-12T00:51:27.468Z,44.30
2018-01-12T00:53:55.446Z,43.53
2018-01-12T00:56:22.983Z,44.17
2018-01-12T00:59:28.567Z,42.60
2018-01-12T01:01:56.854Z,40.80
2018-01-12T01:04:25.224Z,41.17
2018-01-12T01:06:52.734Z,44.53
2018-01-12T01:09:20.238Z,42.27
2018-01-12T01:11:48.500Z,39.97
2018-01-12T01:14:16.212Z,43.63
2018-01-12T01:16:43.716Z,44.03
2018-01-12T01:19:11.211Z,44.50
2018-01-12T01:21:39.478Z,44.97
2018-01-12T01:24:07.741Z,43.70
2018-01-12T01:26:36.046Z,44.27
2018-01-12T01:29:03.533Z,43.27
2018-01-12T01:31:31.030Z,44.00
2018-01-12T01:33:58.534Z,42.00
2018-01-12T01:36:26.028Z,43.80
2018-01-12T01:38:53.539Z,42.57
2018-01-12T01:41:21.038Z,44.13
2018-01-12T01:43:48.554Z,43.17
2018-01-12T01:46:16.064Z,41.07
2018-01-12T01:48:43.561Z,43.10
2018-01-12T01:51:11.839Z,43.37
2018-01-12T01:53:40.146Z,43.23
2018-01-12T01:56:08.445Z,44.97
2018-01-12T01:58:35.945Z,45.07
2018-01-12T02:01:04.213Z,43.33
2018-01-12T02:03:31.726Z,44.80
2018-01-12T02:05:59.217Z,44.07
2018-01-12T02:08:26.714Z,47.07
2018-01-12T02:10:54.230Z,42.30
2018-01-12T02:13:21.719Z,43.10
2018-01-12T02:15:49.991Z,43.00
2018-01-12T02:18:18.266Z,44.43
2018-01-12T02:20:46.526Z,44.47
2018-01-12T02:23:14.038Z,43.80
2018-01-12T02:25:41.530Z,43.20
2018-01-12T02:28:09.040Z,42.60
2018-01-12T02:30:36.530Z,45.73
2018-01-12T02:33:04.037Z,45.97
2018-01-12T02:35:32.313Z,44.67
2018-01-12T02:38:00.578Z,44.13
2018-01-12T02:40:28.150Z,43.97
2018-01-12T02:42:56.426Z,45.57
2018-01-12T02:45:24.682Z,46.00
2018-01-12T02:47:52.185Z,43.03
2018-01-12T02:50:19.689Z,46.30
2018-01-12T02:52:47.200Z,43.87
2018-01-12T02:55:14.697Z,46.17
2018-01-12T02:57:42.194Z,45.53
2018-01-12T03:00:10.462Z,47.60
2018-01-12T03:02:37.962Z,47.27
2018-01-12T03:05:05.474Z,49.63
2018-01-12T03:07:32.961Z,47.60
2018-01-12T03:10:01.226Z,48.37
2018-01-12T03:12:29.503Z,47.23
2018-01-12T03:14:57.760Z,48.70
2018-01-12T03:17:25.283Z,48.10
2018-01-12T03:19:52.773Z,47.70
2018-01-12T03:22:20.274Z,48.37
2018-01-12T03:24:47.790Z,49.47
2018-01-12T03:27:15.286Z,47.97
2018-01-12T03:29:43.555Z,49.80
2018-01-12T03:32:11.821Z,46.47
2018-01-12T03:34:40.101Z,50.80
2018-01-12T03:37:08.357Z,48.70
2018-01-12T03:39:35.857Z,49.10
2018-01-12T03:42:03.364Z,50.77
2018-01-12T03:44:30.859Z,48.57
2018-01-12T03:46:59.134Z,49.67
2018-01-12T03:49:27.392Z,49.80
2018-01-12T03:51:54.917Z,51.20
2018-01-12T03:54:22.426Z,50.57
2018-01-12T03:56:50.689Z,53.07
2018-01-12T03:59:18.223Z,53.67
2018-01-12T04:01:45.721Z,53.03
2018-01-12T04:04:13.998Z,53.90
2018-01-12T04:06:42.257Z,54.30
2018-01-12T04:09:09.762Z,53.73
2018-01-12T04:11:37.274Z,55.60
2018-01-12T04:14:04.779Z,59.33
2018-01-12T04:16:32.286Z,54.00
2018-01-12T04:18:59.781Z,58.57
2018-01-12T04:21:28.058Z,55.70
2018-01-12T04:23:56.320Z,54.53
2018-01-12T04:26:24.581Z,56.27
2018-01-12T04:28:52.094Z,59.30
2018-01-12T04:31:19.594Z,59.93
2018-01-12T04:33:47.108Z,59.70
2018-01-12T04:36:14.606Z,60.67
2018-01-12T04:38:42.114Z,59.23
2018-01-12T04:41:09.618Z,60.00
2018-01-12T04:43:37.141Z,61.90
2018-01-12T04:46:04.640Z,60.90
2018-01-12T04:48:32.129Z,60.53
2018-01-12T04:51:00.417Z,62.30
2018-01-12T04:53:28.682Z,58.73
2018-01-12T04:55:56.957Z,59.63
2018-01-12T04:58:25.213Z,61.00
2018-01-12T05:00:52.724Z,62.30
2018-01-12T05:03:20.225Z,62.60
2018-01-12T05:05:47.743Z,61.97
2018-01-12T05:08:15.234Z,62.80
2018-01-12T05:10:42.785Z,63.57
2018-01-12T05:13:11.058Z,65.77
2018-01-12T05:15:38.562Z,66.30
2018-01-12T05:18:06.842Z,66.37
2018-01-12T05:20:35.153Z,65.80
2018-01-12T05:23:02.674Z,61.00
2018-01-12T05:25:30.950Z,62.40
2018-01-12T05:27:59.233Z,60.10
2018-01-12T05:30:27.502Z,59.23
2018-01-12T05:32:55.761Z,58.17
2018-01-12T05:35:24.062Z,59.83
2018-01-12T05:37:52.340Z,62.20
2018-01-12T05:40:20.666Z,61.90
2018-01-12T05:42:48.163Z,67.40
2018-01-12T05:45:16.454Z,62.10
2018-01-12T05:47:44.710Z,61.40
2018-01-12T05:50:12.234Z,60.30
2018-01-12T05:52:39.728Z,63.30
2018-01-12T05:55:07.227Z,60.60
2018-01-12T05:57:34.733Z,60.57
2018-01-12T06:00:02.240Z,66.70
2018-01-12T06:02:41.493Z,64.27
2018-01-12T06:08:17.925Z,63.40
2018-01-12T06:10:45.417Z,64.77
2018-01-12T06:13:13.692Z,61.40
2018-01-12T06:15:41.954Z,63.57
2018-01-12T06:18:10.242Z,59.27
2018-01-12T06:20:38.504Z,60.40
2018-01-12T06:23:06.804Z,58.90
2018-01-12T06:25:34.305Z,61.37
2018-01-12T06:28:01.834Z,59.67
2018-01-12T06:30:29.342Z,60.60
2018-01-12T06:32:56.842Z,59.50
2018-01-12T06:35:24.354Z,62.90
2018-01-12T06:37:51.850Z,60.40
2018-01-12T06:40:22.095Z,59.13
2018-01-12T06:42:49.599Z,60.57
2018-01-12T06:45:17.089Z,64.63
2018-01-12T06:47:45.362Z,67.37
2018-01-12T06:50:13.631Z,64.30
2018-01-12T06:52:41.912Z,68.60
2018-01-12T06:55:10.184Z,65.30
2018-01-12T06:57:38.470Z,64.87
2018-01-12T07:00:06.738Z,65.03
2018-01-12T07:02:35.005Z,63.30
2018-01-12T07:05:02.509Z,65.97
2018-01-12T07:07:30.002Z,60.60
2018-01-12T07:09:57.526Z,64.57
2018-01-12T07:12:25.040Z,65.47
2018-01-12T07:14:53.333Z,63.37
2018-01-12T07:17:21.602Z,64.50
2018-01-12T07:19:49.940Z,65.53
2018-01-12T07:22:24.405Z,62.77
2018-01-12T07:24:52.666Z,63.77
2018-01-12T07:27:20.170Z,68.67
2018-01-12T07:29:47.669Z,62.90
2018-01-12T07:32:15.191Z,65.67
2018-01-12T07:34:42.686Z,64.30
2018-01-12T07:37:10.193Z,64.90
2018-01-12T07:39:37.769Z,60.87
2018-01-12T07:42:05.330Z,64.00
2018-01-12T07:44:32.834Z,60.67
2018-01-12T07:47:00.337Z,63.03
2018-01-12T07:49:27.866Z,64.03
2018-01-12T07:51:56.130Z,63.20
2018-01-12T07:54:23.637Z,62.10
2018-01-12T07:56:51.157Z,63.13
2018-01-12T07:59:18.655Z,64.10
2018-01-12T08:01:51.828Z,62.10
2018-01-12T08:04:20.096Z,63.20
2018-01-12T08:06:48.404Z,64.73
2018-01-12T08:09:15.897Z,64.07
2018-01-12T08:11:43.396Z,65.23
2018-01-12T08:14:11.677Z,67.33
2018-01-12T08:16:40.363Z,64.30
2018-01-12T08:19:07.925Z,64.60
2018-01-12T08:21:36.189Z,64.70
2018-01-12T08:24:04.494Z,66.87
2018-01-12T08:26:31.998Z,64.77
2018-01-12T08:28:59.489Z,65.50
2018-01-12T08:31:27.769Z,68.77
2018-01-12T08:33:56.053Z,65.23
2018-01-12T08:36:24.322Z,64.00
2018-01-12T08:38:52.583Z,65.30
2018-01-12T08:41:20.901Z,67.40
2018-01-12T08:43:48.405Z,67.77
2018-01-12T08:46:15.920Z,64.17
2018-01-12T08:48:43.417Z,66.93
2018-01-12T08:51:10.911Z,65.97
2018-01-12T08:53:39.180Z,69.43
2018-01-12T08:56:07.452Z,70.40
2018-01-12T08:58:35.729Z,63.60
2018-01-12T09:01:03.995Z,64.20
2018-01-12T09:03:32.299Z,65.87
2018-01-12T09:06:01.300Z,70.20
2018-01-12T09:08:28.813Z,65.67
2018-01-12T09:10:56.308Z,64.77
2018-01-12T09:13:36.554Z,65.63
2018-01-12T09:16:06.620Z,60.40
2018-01-12T09:18:46.119Z,61.97
2018-01-12T09:21:24.508Z,63.03
2018-01-12T09:23:54.667Z,59.63
2018-01-12T09:26:22.157Z,61.00
2018-01-12T09:28:49.673Z,57.63
2018-01-12T09:31:17.955Z,59.87
2018-01-12T09:33:48.199Z,56.00
2018-01-12T09:36:15.717Z,61.10
2018-01-12T09:38:53.057Z,61.87
2018-01-12T09:41:20.566Z,64.97
2018-01-12T09:43:48.061Z,62.97
2018-01-12T09:46:15.577Z,60.07
2018-01-12T09:48:51.824Z,60.47
2018-01-12T09:51:19.333Z,61.40
2018-01-12T09:53:46.822Z,59.80
2018-01-12T09:56:14.333Z,61.37
2018-01-12T09:58:45.451Z,59.50
2018-01-12T10:01:25.794Z,58.90
2018-01-12T10:03:53.289Z,55.83
2018-01-12T10:06:21.547Z,59.30
2018-01-12T10:09:03.930Z,56.23
2018-01-12T10:11:31.426Z,55.80
2018-01-12T10:13:58.937Z,56.00
2018-01-12T10:16:26.431Z,58.20
2018-01-12T10:18:53.921Z,61.57
2018-01-12T10:21:33.861Z,59.97
2018-01-12T10:24:02.118Z,59.93
2018-01-12T10:26:29.641Z,61.57
2018-01-12T10:29:07.072Z,61.13
2018-01-12T10:31:41.008Z,57.00
2018-01-12T10:34:09.274Z,58.87
2018-01-12T10:36:39.461Z,61.33
2018-01-12T10:39:18.867Z,62.37
2018-01-12T10:41:58.327Z,61.53
2018-01-12T10:44:25.814Z,59.77
2018-01-12T10:47:05.227Z,60.17
2018-01-12T10:49:33.628Z,57.23
2018-01-12T10:52:06.065Z,61.57
2018-01-12T10:54:33.561Z,57.20
2018-01-12T10:57:01.061Z,59.27
2018-01-12T10:59:28.577Z,57.50
2018-01-12T11:01:56.073Z,61.70
2018-01-12T11:04:23.586Z,59.57
2018-01-12T11:06:51.089Z,60.07
2018-01-12T11:09:18.601Z,57.40
2018-01-12T11:11:46.093Z,58.97
2018-01-12T11:14:14.373Z,61.70
2018-01-12T11:16:42.640Z,63.40
2018-01-12T11:19:10.921Z,64.37
2018-01-12T11:21:39.193Z,60.03
2018-01-12T11:24:07.453Z,64.80
2018-01-12T11:26:34.972Z,59.07
2018-01-12T11:29:02.498Z,58.17
2018-01-12T11:33:46.176Z,67.97
2018-01-12T11:36:13.734Z,74.40
2018-01-12T11:38:41.231Z,66.47
2018-01-12T11:41:08.727Z,66.95
2018-01-12T11:43:37.009Z,65.60
2018-01-12T11:46:05.272Z,65.00
2018-01-12T11:48:33.554Z,65.50
2018-01-12T11:51:01.822Z,64.90
2018-01-12T11:53:36.029Z,62.00
2018-01-12T11:56:03.531Z,62.60
2018-01-12T11:58:31.098Z,62.07
2018-01-12T12:00:58.597Z,65.17
2018-01-12T12:03:26.109Z,65.60
2018-01-12T12:05:53.621Z,64.63
2018-01-12T12:08:21.132Z,63.80
2018-01-12T12:10:48.646Z,63.47
2018-01-12T12:13:16.149Z,67.80
2018-01-12T12:15:43.702Z,67.80
2018-01-12T12:18:11.201Z,68.97
2018-01-12T12:20:38.720Z,64.97
2018-01-12T12:23:06.238Z,69.33
2018-01-12T12:25:35.285Z,67.40
2018-01-12T12:28:02.822Z,66.30
2018-01-12T12:30:31.090Z,79.50
2018-01-12T12:32:59.364Z,68.10
2018-01-12T12:35:27.618Z,69.90
2018-01-12T12:37:55.123Z,67.30
2018-01-12T12:40:22.629Z,69.80
2018-01-12T12:42:50.333Z,68.20
2018-01-12T12:45:17.841Z,69.67
2018-01-12T12:47:45.393Z,73.40
2018-01-12T12:50:12.901Z,70.80
2018-01-12T12:52:41.160Z,67.90
2018-01-12T12:55:08.673Z,69.13
2018-01-12T12:57:36.201Z,71.27
2018-01-12T13:00:04.498Z,78.90
2018-01-12T13:02:32.030Z,69.87
2018-01-12T13:05:00.335Z,69.17
2018-01-12T13:07:27.897Z,71.03
2018-01-12T13:09:55.389Z,67.77
2018-01-12T13:12:22.895Z,68.53
2018-01-12T13:14:50.413Z,69.40
2018-01-12T13:17:17.934Z,70.00
2018-01-12T13:19:45.423Z,69.80
2018-01-12T13:22:12.925Z,68.53
2018-01-12T13:24:41.183Z,66.47
2018-01-12T13:27:08.786Z,68.60
2018-01-12T13:29:36.282Z,72.33
2018-01-12T13:32:03.824Z,69.43
2018-01-12T13:34:31.363Z,70.77
2018-01-12T13:36:58.884Z,66.80
2018-01-12T13:39:28.173Z,68.80
2018-01-12T13:41:55.661Z,67.07
2018-01-12T13:44:23.942Z,70.63
2018-01-12T13:46:51.447Z,68.13
2018-01-12T13:49:20.726Z,72.30
2018-01-12T13:51:48.245Z,71.40
2018-01-12T13:54:16.501Z,70.73
2018-01-12T13:56:44.011Z,69.50
2018-01-12T13:59:11.508Z,67.70
2018-01-12T14:01:39.042Z,69.07
2018-01-12T14:04:06.533Z,68.30
2018-01-12T14:06:34.029Z,70.37
2018-01-12T14:09:01.537Z,72.20
2018-01-12T14:11:29.033Z,69.73
2018-01-12T14:13:57.301Z,68.67
2018-01-12T14:16:24.807Z,67.47
2018-01-12T14:18:52.323Z,68.50
2018-01-12T14:21:20.582Z,67.70
2018-01-12T14:23:48.098Z,65.67
2018-01-12T14:26:15.605Z,67.70
2018-01-12T14:28:43.093Z,63.60
2018-01-12T14:31:11.365Z,67.33
2018-01-12T14:33:39.626Z,67.63
2018-01-12T14:36:07.906Z,65.17
2018-01-12T14:38:36.173Z,67.63
2018-01-12T14:41:03.681Z,64.40
2018-01-12T14:43:31.178Z,67.97
2018-01-12T14:45:58.700Z,66.63
2018-01-12T14:48:26.201Z,62.90
2018-01-12T14:50:53.711Z,66.17
2018-01-12T14:53:21.213Z,65.90
2018-01-12T14:55:48.703Z,64.20
2018-01-12T14:58:16.976Z,71.40
2018-01-12T15:00:45.250Z,64.03
2018-01-12T15:03:13.565Z,61.37
2018-01-12T15:05:41.067Z,61.67
2018-01-12T15:08:08.577Z,63.50
2018-01-12T15:10:36.084Z,58.83
2018-01-12T15:13:03.595Z,63.80
2018-01-12T15:15:31.106Z,59.60
2018-01-12T15:17:58.612Z,60.60
2018-01-12T15:20:26.157Z,59.13
2018-01-12T15:22:53.653Z,58.40
2018-01-12T15:25:21.175Z,54.70
2018-01-12T15:27:48.669Z,58.73
2018-01-12T15:30:16.182Z,55.47
2018-01-12T15:32:44.463Z,58.90
2018-01-12T15:35:12.770Z,56.33
2018-01-12T15:37:40.290Z,60.53
2018-01-12T15:40:08.553Z,56.97
2018-01-12T15:42:36.827Z,54.63
2018-01-12T15:45:04.318Z,57.23
2018-01-12T15:47:31.836Z,55.97
2018-01-12T15:49:59.407Z,56.63
2018-01-12T15:52:27.697Z,58.07
2018-01-12T15:54:55.973Z,58.67
2018-01-12T15:57:24.246Z,57.33
2018-01-12T15:59:51.760Z,55.73
2018-01-12T16:02:19.269Z,57.47
2018-01-12T16:04:47.545Z,55.53
2018-01-12T16:07:15.856Z,58.50
2018-01-12T16:09:43.385Z,59.30
2018-01-12T16:12:11.657Z,61.10
2018-01-12T16:14:39.949Z,63.40
2018-01-12T16:17:07.462Z,65.87
2018-01-12T16:19:34.976Z,63.53
2018-01-12T16:22:02.547Z,60.57
2018-01-12T16:24:30.075Z,62.37
2018-01-12T16:26:58.353Z,62.67
2018-01-12T16:29:26.610Z,62.50
2018-01-12T16:31:54.123Z,62.60
2018-01-12T16:34:21.633Z,64.00
2018-01-12T16:36:49.130Z,63.83
2018-01-12T16:39:17.472Z,65.93
2018-01-12T16:41:44.217Z,63.87
2018-01-12T16:44:12.508Z,61.33
2018-01-12T16:46:40.770Z,65.40
2018-01-12T16:49:09.069Z,62.97
2018-01-12T16:51:37.397Z,65.57
2018-01-12T16:54:04.889Z,65.30
2018-01-12T16:56:33.160Z,66.50
2018-01-12T16:59:01.454Z,75.53
2018-01-12T17:01:29.794Z,64.17
2018-01-12T17:03:57.330Z,69.47
2018-01-12T17:06:25.705Z,67.33
2018-01-12T17:08:53.215Z,63.63
2018-01-12T17:11:21.486Z,66.43
2018-01-12T17:13:49.771Z,67.77
2018-01-12T17:16:18.033Z,69.03
2018-01-12T17:18:45.558Z,66.03
2018-01-12T17:21:13.146Z,63.87
2018-01-12T17:23:40.645Z,67.70
2018-01-12T17:26:08.153Z,63.80
2018-01-12T17:28:35.648Z,65.10
2018-01-12T17:31:03.953Z,64.77
2018-01-12T17:33:31.489Z,62.60
2018-01-12T17:35:59.006Z,65.43
2018-01-12T17:38:26.513Z,64.40
2018-01-12T17:40:54.038Z,64.97
2018-01-12T17:43:21.569Z,61.47
2018-01-12T17:45:49.096Z,60.37
2018-01-12T17:48:16.635Z,59.57
2018-01-12T17:50:44.907Z,62.20
2018-01-12T17:53:13.314Z,60.07
2018-01-12T17:55:40.820Z,82.77
2018-01-12T17:58:08.318Z,62.40
2018-01-12T18:00:36.589Z,62.53
2018-01-12T18:03:04.921Z,63.47
2018-01-12T18:05:32.440Z,63.30
2018-01-12T18:07:59.934Z,61.47
2018-01-12T18:10:27.458Z,60.07
2018-01-12T18:12:55.720Z,61.33
2018-01-12T18:15:23.985Z,65.13
2018-01-12T18:17:52.261Z,59.17
2018-01-12T18:20:19.761Z,62.40
2018-01-12T18:22:47.274Z,62.27
2018-01-12T18:25:14.776Z,60.83
2018-01-12T18:27:42.297Z,65.00
2018-01-12T18:30:09.804Z,58.83
2018-01-12T18:32:37.314Z,64.37
2018-01-12T18:35:04.825Z,65.80
2018-01-12T18:37:32.333Z,61.67
2018-01-12T18:40:00.638Z,60.33
2018-01-12T18:42:28.129Z,61.83
2018-01-12T18:44:55.772Z,60.30
2018-01-12T18:47:23.299Z,60.10
2018-01-12T18:49:50.870Z,60.40
2018-01-12T18:52:19.145Z,59.60
2018-01-12T18:54:47.413Z,61.20
2018-01-12T18:57:15.697Z,59.87
2018-01-12T18:59:59.605Z,60.30
2018-01-12T19:02:27.227Z,59.03
2018-01-12T19:04:54.745Z,58.27
2018-01-12T19:07:23.053Z,63.23
2018-01-12T19:09:50.557Z,62.40
2018-01-12T19:12:18.079Z,58.43
2018-01-12T19:14:45.586Z,61.07
2018-01-12T19:17:13.085Z,54.67
2018-01-12T19:19:40.621Z,54.40
2018-01-12T19:22:08.883Z,56.40
2018-01-12T19:24:36.390Z,54.87
2018-01-12T19:27:03.910Z,57.80
2018-01-12T19:29:32.182Z,57.60
2018-01-12T19:31:59.701Z,54.83
2018-01-12T19:34:27.217Z,59.97
2018-01-12T19:36:55.506Z,56.90
2018-01-12T19:39:23.766Z,59.63
2018-01-12T19:41:52.046Z,58.73
2018-01-12T19:44:20.340Z,62.90
2018-01-12T19:46:47.838Z,56.17
2018-01-12T19:49:15.350Z,56.87
2018-01-12T19:51:43.625Z,59.40
2018-01-12T19:54:11.883Z,53.60
2018-01-12T19:56:39.393Z,57.70
2018-01-12T19:59:06.885Z,55.40
2018-01-12T20:01:34.389Z,58.80
2018-01-12T20:04:01.917Z,57.50
2018-01-12T20:06:29.431Z,56.17
2018-01-12T20:08:56.952Z,58.00
2018-01-12T20:11:25.250Z,55.67
2018-01-12T20:13:52.750Z,54.57
2018-01-12T20:16:20.241Z,56.03
2018-01-12T20:18:48.522Z,55.80
2018-01-12T20:21:16.789Z,52.73
2018-01-12T20:23:45.069Z,54.57
2018-01-12T20:26:13.741Z,52.60
2018-01-12T20:28:41.249Z,56.90
2018-01-12T20:31:08.750Z,55.73
2018-01-12T20:33:37.772Z,55.70
2018-01-12T20:36:06.059Z,56.67
2018-01-12T20:38:33.578Z,55.67
2018-01-12T20:41:01.081Z,52.23
2018-01-12T20:43:28.578Z,53.50
2018-01-12T20:45:56.086Z,54.03
2018-01-12T20:48:24.357Z,53.77
2018-01-12T20:50:52.648Z,54.97
2018-01-12T20:53:20.943Z,56.10
2018-01-12T20:55:48.440Z,53.57
2018-01-12T20:58:15.945Z,53.13
2018-01-12T21:00:43.461Z,58.00
2018-01-12T21:03:10.976Z,55.70
2018-01-12T21:05:38.485Z,57.20
2018-01-12T21:08:05.978Z,52.97
2018-01-12T21:10:34.254Z,54.40
2018-01-12T21:13:02.513Z,57.53
2018-01-12T21:15:30.789Z,54.47
2018-01-12T21:17:59.103Z,54.27
2018-01-12T21:20:26.660Z,55.10
2018-01-12T21:22:54.183Z,54.67
2018-01-12T21:25:22.442Z,53.03
2018-01-12T21:27:51.462Z,54.00
2018-01-12T21:30:19.717Z,52.17
2018-01-12T21:32:47.242Z,52.93
2018-01-12T21:35:14.733Z,53.87
2018-01-12T21:37:42.245Z,54.50
2018-01-12T21:40:09.754Z,50.60
2018-01-12T21:42:37.250Z,52.10
2018-01-12T21:45:04.767Z,88.00
2018-01-12T21:47:33.035Z,51.93
2018-01-12T21:50:00.566Z,52.30
2018-01-12T21:52:28.078Z,42.97
2018-01-12T21:54:56.342Z,48.20
2018-01-12T21:57:23.860Z,44.07
2018-01-12T21:59:51.366Z,43.13
2018-01-12T22:02:18.873Z,44.93
2018-01-12T22:04:46.377Z,45.30
2018-01-12T22:07:13.897Z,46.87
2018-01-12T22:09:41.407Z,61.10
2018-01-12T22:12:08.900Z,47.57
2018-01-12T22:14:36.405Z,47.37
2018-01-12T22:17:03.901Z,46.57
2018-01-12T22:19:32.179Z,62.47
2018-01-12T22:22:00.440Z,47.00
2018-01-12T22:24:28.758Z,45.10
2018-01-12T22:26:56.250Z,48.00
2018-01-12T22:29:23.745Z,51.30
2018-01-12T22:31:52.024Z,60.00
2018-01-12T22:34:20.294Z,71.10
2018-01-12T22:36:48.572Z,46.70
2018-01-12T22:39:16.858Z,48.40
2018-01-12T22:41:45.125Z,45.90
2018-01-12T22:44:13.401Z,46.27
2018-01-12T22:46:41.687Z,45.10
2018-01-12T22:49:09.954Z,62.23
2018-01-12T22:51:38.262Z,103.13
2018-01-12T22:54:05.777Z,43.53
2018-01-12T22:56:33.269Z,44.60
2018-01-12T22:59:00.785Z,48.23
2018-01-12T23:01:28.282Z,47.50
2018-01-12T23:03:55.797Z,46.60
2018-01-12T23:06:23.286Z,45.63
2018-01-12T23:08:51.562Z,46.00
2018-01-12T23:11:19.817Z,45.10
2018-01-12T23:13:47.311Z,43.30
2018-01-12T23:16:15.613Z,43.23
2018-01-12T23:18:43.106Z,42.63
2018-01-12T23:21:10.625Z,43.23
2018-01-12T23:23:38.122Z,42.97
2018-01-12T23:26:05.669Z,104.07
2018-01-12T23:28:33.180Z,108.07
2018-01-12T23:31:00.702Z,69.73
2018-01-12T23:33:28.221Z,48.73
2018-01-12T23:35:55.725Z,49.17
2018-01-12T23:38:23.229Z,44.10
2018-01-12T23:40:50.725Z,43.50
2018-01-12T23:43:18.232Z,43.63
2018-01-12T23:45:46.550Z,46.30
2018-01-12T23:48:14.057Z,46.53
2018-01-12T23:50:42.437Z,46.67
2018-01-12T23:53:10.716Z,45.20
2018-01-12T23:55:38.986Z,45.43
2018-01-12T23:58:07.251Z,44.20
